createdAt,value
2023-02-13T00:08:29.441Z,49.4
2023-02-13T00:44:31.694Z,32.7
2023-02-13T01:17:33.766Z,32.2
2023-02-13T01:47:35.542Z,33.2
2023-02-13T02:17:37.311Z,32.7
2023-02-13T02:49:39.511Z,32.7
2023-02-13T03:20:41.380Z,34.3
2023-02-13T03:51:43.022Z,33.8
2023-02-13T04:23:44.931Z,33.8
2023-02-13T04:53:46.814Z,33.8
2023-02-13T05:29:49.047Z,32.2
2023-02-13T05:59:50.927Z,32.7
2023-02-13T06:31:52.926Z,33.2
2023-02-13T07:01:54.804Z,34.3
2023-02-13T07:31:56.615Z,34.9
2023-02-13T08:01:58.500Z,35.9
2023-02-13T08:34:01.158Z,54.2
2023-02-13T09:04:03.686Z,56.9
2023-02-13T09:36:05.683Z,41.3
2023-02-13T10:07:07.526Z,41.9
2023-02-13T10:37:09.457Z,42.9
2023-02-13T11:10:11.557Z,43.5
2023-02-13T11:40:13.454Z,44
2023-02-13T12:10:15.287Z,45.1
2023-02-13T12:40:17.418Z,43.5
2023-02-13T13:10:19.292Z,44
2023-02-13T13:50:22.016Z,48.3
2023-02-13T14:23:24.119Z,42.4
2023-02-13T14:53:26.083Z,41.3
2023-02-13T15:24:28.011Z,38.6
2023-02-13T15:58:29.956Z,37
2023-02-13T16:30:32.193Z,35.4
2023-02-13T17:01:34.066Z,35.4
2023-02-13T17:33:36.610Z,49.9
2023-02-13T18:06:39.672Z,50.5
2023-02-13T18:36:41.528Z,32.7
2023-02-13T19:06:43.449Z,32.7
2023-02-13T19:37:45.297Z,31.6
2023-02-13T20:12:47.282Z,32.7
2023-02-13T20:43:49.080Z,32.7
2023-02-13T21:13:50.955Z,33.8
2023-02-13T21:49:53.048Z,32.7
2023-02-13T22:20:55.144Z,33.8
2023-02-13T22:51:57.055Z,34.3
2023-02-13T23:36:59.660Z,35.9
